EmailTwitter


Surface observations / United Kingdom / EGLL (03772)

Regions: Quebec | Canada | USA | Europe | France | UK | Elsewhere
Station
Display
Info & Location for EGLL (03772) | Help decoding METAR

Weather Conditions observed on 2018/11/17 at 02:50 UTC at LONDON/HEATHROW, UK (EGLL)

Sky conditions: partly cloudy.

Obstruction(s) to Vision: fog.

Temperature: 9.0 Celsius.

Dewpoint: 8.0 Celsius.

Relative Humidity: 93%

Windchill Factor: 7.

Winds: East-northeast at 13 km/h or 7 knots.

Mean Sea level Pressure: 102.60 kilopascals.

Horizontal visibility: 2.17 statute miles or 3.48 kilometers.

Height of the Ceiling: 122 metres ( 400 feet ).

Coded METAR:

EGLL 170250Z 07007KT 3500 BR SCT003 BKN004 09/08 Q1026 BECMG 6000 BKN006=